createdAt,value
2023-05-06T00:01:25.348Z,101763.63
2023-05-06T00:03:52.363Z,101768.31
2023-05-06T00:06:19.207Z,101759.22
2023-05-06T00:08:46.661Z,101761.50
2023-05-06T00:11:13.935Z,101766.16
2023-05-06T00:13:41.629Z,101768.91
2023-05-06T00:16:08.437Z,101764.03
2023-05-06T00:18:35.241Z,101768.56
2023-05-06T00:21:01.641Z,101768.41
2023-05-06T00:23:28.225Z,101762.41
2023-05-06T00:25:54.908Z,101766.78
2023-05-06T00:28:22.022Z,101767.47
2023-05-06T00:30:48.465Z,101766.31
2023-05-06T00:33:14.982Z,101757.72
2023-05-06T00:35:41.383Z,101762.28
2023-05-06T00:38:14.299Z,101758.53
2023-05-06T00:40:41.026Z,101764.25
2023-05-06T00:43:07.535Z,101755.78
2023-05-06T00:45:34.103Z,101752.19
2023-05-06T00:48:01.167Z,101756.72
2023-05-06T00:50:29.625Z,101749.91
2023-05-06T00:52:58.992Z,101762.19
2023-05-06T00:55:26.435Z,101751.97
2023-05-06T00:57:53.107Z,101755.03
2023-05-06T01:00:20.484Z,101759.91
2023-05-06T01:02:48.228Z,101753.06
2023-05-06T01:05:22.242Z,101756.31
2023-05-06T01:08:12.925Z,101751.81
2023-05-06T01:10:51.687Z,101752.78
2023-05-06T01:13:47.092Z,101748.69
2023-05-06T01:16:15.818Z,101747.88
2023-05-06T01:18:44.546Z,101747.59
2023-05-06T01:21:12.632Z,101737.84
2023-05-06T01:23:57.645Z,101731.50
2023-05-06T01:26:24.898Z,101741.03
2023-05-06T01:28:51.498Z,101739.25
2023-05-06T01:31:30.065Z,101740.88
2023-05-06T01:34:14.130Z,101734.88
2023-05-06T01:36:58.484Z,101730.78
2023-05-06T01:39:26.336Z,101728.34
2023-05-06T01:41:57.315Z,101725.44
2023-05-06T01:44:24.870Z,101725.91
2023-05-06T01:46:51.793Z,101723.97
2023-05-06T01:49:19.893Z,101727.81
2023-05-06T01:51:50.846Z,101725.38
2023-05-06T01:54:17.730Z,101728.25
2023-05-06T01:56:44.195Z,101731.38
2023-05-06T01:59:10.832Z,101733.31
2023-05-06T02:01:37.297Z,101730.34
2023-05-06T02:04:04.181Z,101736.84
2023-05-06T02:06:30.777Z,101731.13
2023-05-06T02:08:57.182Z,101736.44
2023-05-06T02:11:23.621Z,101739.34
2023-05-06T02:13:50.356Z,101741.44
2023-05-06T02:16:16.969Z,101737.00
2023-05-06T02:18:43.606Z,101740.88
2023-05-06T02:21:10.435Z,101749.59
2023-05-06T02:23:36.820Z,101751.09
2023-05-06T02:26:04.331Z,101755.97
2023-05-06T02:28:30.827Z,101749.59
2023-05-06T02:30:57.717Z,101752.66
2023-05-06T02:33:24.499Z,101751.03
2023-05-06T02:35:51.329Z,101749.84
2023-05-06T02:38:19.129Z,101749.63
2023-05-06T02:40:45.701Z,101744.09
2023-05-06T02:43:12.200Z,101745.50
2023-05-06T02:45:39.288Z,101748.53
2023-05-06T02:48:06.321Z,101742.97
2023-05-06T02:50:34.017Z,101750.75
2023-05-06T02:53:00.553Z,101748.53
2023-05-06T02:55:27.183Z,101744.69
2023-05-06T02:57:53.669Z,101746.47
2023-05-06T03:00:20.335Z,101743.06
2023-05-06T03:02:47.182Z,101740.63
2023-05-06T03:05:13.746Z,101749.34
2023-05-06T03:07:40.170Z,101753.44
2023-05-06T03:10:07.593Z,101745.94
2023-05-06T03:12:34.207Z,101746.25
2023-05-06T03:15:00.710Z,101745.25
2023-05-06T03:17:27.200Z,101746.91
2023-05-06T03:19:53.668Z,101740.91
2023-05-06T03:22:20.482Z,101730.19
2023-05-06T03:24:46.859Z,101734.16
2023-05-06T03:27:13.312Z,101733.66
2023-05-06T03:29:39.742Z,101734.63
2023-05-06T03:32:06.631Z,101732.16
2023-05-06T03:34:33.080Z,101741.56
2023-05-06T03:37:00.449Z,101738.69
2023-05-06T03:39:26.861Z,101737.06
2023-05-06T03:41:53.394Z,101739.94
2023-05-06T03:44:19.820Z,101725.81
2023-05-06T03:46:46.242Z,101740.53
2023-05-06T03:49:12.944Z,101747.47
2023-05-06T03:51:39.534Z,101739.72
2023-05-06T03:54:06.174Z,101738.69
2023-05-06T03:56:32.677Z,101745.25
2023-05-06T03:58:59.122Z,101753.03
2023-05-06T04:01:25.646Z,101748.84
2023-05-06T04:03:53.657Z,101745.13
2023-05-06T04:06:20.104Z,101745.13
2023-05-06T04:08:46.548Z,101739.28
2023-05-06T04:11:13.054Z,101748.53
2023-05-06T04:13:39.554Z,101752.50
2023-05-06T04:16:06.367Z,101744.81
2023-05-06T04:18:34.315Z,101749.13
2023-05-06T04:21:00.899Z,101736.97
2023-05-06T04:23:27.408Z,101735.34
2023-05-06T04:25:53.995Z,101737.50
2023-05-06T04:28:20.702Z,101730.63
2023-05-06T04:30:47.194Z,101741.22
2023-05-06T04:33:13.956Z,101734.47
2023-05-06T04:35:41.012Z,101743.28
2023-05-06T04:38:07.586Z,101745.09
2023-05-06T04:40:36.577Z,101748.69
2023-05-06T04:43:03.194Z,101756.53
2023-05-06T04:45:29.946Z,101759.16
2023-05-06T04:47:56.620Z,101758.78
2023-05-06T04:50:23.129Z,101769.97
2023-05-06T04:52:49.707Z,101763.09
2023-05-06T04:55:16.284Z,101766.00
2023-05-06T04:57:42.831Z,101776.06
2023-05-06T05:00:10.671Z,101776.50
2023-05-06T05:02:37.607Z,101776.44
2023-05-06T05:05:04.441Z,101779.28
2023-05-06T05:07:30.950Z,101781.94
2023-05-06T05:09:57.579Z,101784.72
2023-05-06T05:12:24.015Z,101784.59
2023-05-06T05:14:50.450Z,101787.97
2023-05-06T05:17:17.038Z,101793.44
2023-05-06T05:19:43.549Z,101789.94
2023-05-06T05:22:10.040Z,101791.59
2023-05-06T05:24:36.469Z,101797.94
2023-05-06T05:27:03.444Z,101786.53
2023-05-06T05:29:29.936Z,101786.25
2023-05-06T05:31:56.628Z,101777.75
2023-05-06T05:34:23.022Z,101781.28
2023-05-06T05:36:49.561Z,101779.56
2023-05-06T05:39:16.078Z,101778.88
2023-05-06T05:41:42.610Z,101776.19
2023-05-06T05:44:09.095Z,101782.00
2023-05-06T05:46:35.581Z,101789.44
2023-05-06T05:49:02.087Z,101783.81
2023-05-06T05:51:28.566Z,101783.13
2023-05-06T05:53:54.984Z,101784.72
2023-05-06T05:56:21.503Z,101785.50
2023-05-06T05:58:48.073Z,101784.59
2023-05-06T06:01:14.643Z,101785.03
2023-05-06T06:03:41.895Z,101784.25
2023-05-06T06:06:09.217Z,101789.38
2023-05-06T06:08:36.048Z,101800.28
2023-05-06T06:11:04.480Z,101793.53
2023-05-06T06:13:31.579Z,101790.63
2023-05-06T06:15:58.477Z,101795.22
2023-05-06T06:18:24.968Z,101790.34
2023-05-06T06:20:53.286Z,101793.69
2023-05-06T06:23:20.946Z,101790.63
2023-05-06T06:25:47.431Z,101789.56
2023-05-06T06:28:13.950Z,101782.59
2023-05-06T06:30:41.215Z,101785.34
2023-05-06T06:33:07.765Z,101805.25
2023-05-06T06:35:35.643Z,101802.94
2023-05-06T06:38:02.849Z,101794.41
2023-05-06T06:40:29.310Z,101798.28
2023-05-06T06:42:55.814Z,101795.75
2023-05-06T06:45:23.438Z,101796.03
2023-05-06T06:47:50.055Z,101799.13
2023-05-06T06:50:16.723Z,101797.56
2023-05-06T06:52:43.126Z,101806.22
2023-05-06T06:55:10.210Z,101802.44
2023-05-06T06:57:37.911Z,101804.59
2023-05-06T07:00:05.129Z,101808.75
2023-05-06T07:02:31.647Z,101809.97
2023-05-06T07:04:58.091Z,101816.41
2023-05-06T07:07:24.505Z,101813.81
2023-05-06T07:09:50.939Z,101817.69
2023-05-06T07:12:17.400Z,101811.59
2023-05-06T07:14:43.783Z,101808.75
2023-05-06T07:17:10.264Z,101812.72
2023-05-06T07:19:36.894Z,101810.06
2023-05-06T07:22:03.432Z,101813.63
2023-05-06T07:24:29.905Z,101817.00
2023-05-06T07:26:56.639Z,101817.44
2023-05-06T07:29:23.708Z,101817.41
2023-05-06T07:31:50.080Z,101820.25
2023-05-06T07:34:16.530Z,101820.66
2023-05-06T07:36:54.821Z,101823.69
2023-05-06T07:39:21.290Z,101820.69
2023-05-06T07:41:48.025Z,101825.75
2023-05-06T07:44:14.418Z,101819.09
2023-05-06T07:46:41.790Z,101815.78
2023-05-06T07:49:08.323Z,101820.81
2023-05-06T07:51:34.842Z,101813.72
2023-05-06T07:54:01.310Z,101814.75
2023-05-06T07:56:28.001Z,101811.13
2023-05-06T07:58:54.590Z,101819.81
2023-05-06T08:01:21.154Z,101827.72
2023-05-06T08:03:47.670Z,101827.63
2023-05-06T08:06:14.464Z,101831.91
2023-05-06T08:08:40.894Z,101824.25
2023-05-06T08:11:07.369Z,101820.22
2023-05-06T08:13:33.890Z,101829.16
2023-05-06T08:16:02.318Z,101827.72
2023-05-06T08:18:29.362Z,101826.28
2023-05-06T08:20:55.909Z,101828.88
2023-05-06T08:23:22.470Z,101823.03
2023-05-06T08:25:48.862Z,101837.22
2023-05-06T08:28:15.271Z,101832.16
2023-05-06T08:30:41.919Z,101833.09
2023-05-06T08:33:08.410Z,101830.31
2023-05-06T08:35:34.836Z,101831.53
2023-05-06T08:38:01.854Z,101836.75
2023-05-06T08:40:32.538Z,101835.63
2023-05-06T08:42:59.732Z,101830.34
2023-05-06T08:45:29.269Z,101831.31
2023-05-06T08:47:56.180Z,101831.63
2023-05-06T08:50:23.396Z,101830.41
2023-05-06T08:52:50.858Z,101829.56
2023-05-06T08:55:19.327Z,101827.03
2023-05-06T08:57:46.311Z,101827.47
2023-05-06T09:00:13.459Z,101826.06
2023-05-06T09:02:42.693Z,101832.16
2023-05-06T09:05:10.216Z,101829.25
2023-05-06T09:07:37.026Z,101822.25
2023-05-06T09:10:21.874Z,101824.22
2023-05-06T09:12:48.435Z,101826.28
2023-05-06T09:15:15.163Z,101820.06
2023-05-06T09:17:41.955Z,101820.13
2023-05-06T09:20:11.948Z,101828.63
2023-05-06T09:22:40.510Z,101823.28
2023-05-06T09:25:07.848Z,101811.59
2023-05-06T09:27:36.586Z,101818.19
2023-05-06T09:30:14.886Z,101813.22
2023-05-06T09:32:41.916Z,101818.44
2023-05-06T09:35:10.638Z,101813.44
2023-05-06T09:37:37.320Z,101803.72
2023-05-06T09:40:04.097Z,101811.69
2023-05-06T09:42:30.880Z,101807.09
2023-05-06T09:45:07.575Z,101809.59
2023-05-06T09:47:35.644Z,101804.16
2023-05-06T09:50:03.354Z,101804.84
2023-05-06T09:52:31.150Z,101800.34
2023-05-06T09:54:58.147Z,101801.09
2023-05-06T09:57:25.719Z,101799.50
2023-05-06T09:59:53.964Z,101796.91
2023-05-06T10:02:23.426Z,101805.50
2023-05-06T10:04:51.199Z,101794.44
2023-05-06T10:07:22.754Z,101798.19
2023-05-06T10:09:51.085Z,101797.41
2023-05-06T10:12:19.012Z,101792.44
2023-05-06T10:14:45.627Z,101793.78
2023-05-06T10:17:13.329Z,101798.41
2023-05-06T10:19:43.773Z,101789.34
2023-05-06T10:22:30.941Z,101791.72
2023-05-06T10:25:33.879Z,101793.72
2023-05-06T10:28:01.422Z,101791.91
2023-05-06T10:30:30.148Z,101790.13
2023-05-06T10:32:59.549Z,101789.34
2023-05-06T10:35:41.425Z,101786.69
2023-05-06T10:38:29.632Z,101783.97
2023-05-06T10:40:57.302Z,101786.44
2023-05-06T10:43:32.001Z,101780.59
2023-05-06T10:46:02.921Z,101777.06
2023-05-06T10:48:30.866Z,101778.53
2023-05-06T10:51:15.935Z,101774.94
2023-05-06T10:54:08.514Z,101766.94
2023-05-06T10:56:50.217Z,101763.06
2023-05-06T10:59:24.954Z,101767.59
2023-05-06T11:01:57.390Z,101766.00
2023-05-06T11:04:24.015Z,101771.44
2023-05-06T11:06:52.961Z,101768.34
2023-05-06T11:09:24.610Z,101770.63
2023-05-06T11:12:05.914Z,101770.03
2023-05-06T11:14:35.349Z,101767.16
2023-05-06T11:17:04.935Z,101769.88
2023-05-06T11:19:33.102Z,101762.88
2023-05-06T11:22:01.766Z,101764.69
2023-05-06T11:24:30.193Z,101763.53
2023-05-06T11:26:58.830Z,101760.25
2023-05-06T11:29:25.937Z,101753.03
2023-05-06T11:31:55.856Z,101763.53
2023-05-06T11:34:30.489Z,101753.59
2023-05-06T11:37:02.487Z,101752.25
2023-05-06T11:39:32.327Z,101760.22
2023-05-06T11:42:06.974Z,101753.41
2023-05-06T11:44:35.115Z,101753.47
2023-05-06T11:47:05.594Z,101751.94
2023-05-06T11:49:40.759Z,101749.53
2023-05-06T11:52:12.003Z,101749.75
2023-05-06T11:54:40.603Z,101749.84
2023-05-06T11:57:07.436Z,101748.47
2023-05-06T11:59:37.489Z,101745.03
2023-05-06T12:02:06.145Z,101743.78
2023-05-06T12:04:44.200Z,101750.72
2023-05-06T12:07:13.158Z,101742.75
2023-05-06T12:09:43.572Z,101747.59
2023-05-06T12:12:11.236Z,101743.09
2023-05-06T12:14:38.399Z,101750.56
2023-05-06T12:17:05.413Z,101746.34
2023-05-06T12:19:32.707Z,101744.94
2023-05-06T12:22:19.479Z,101746.97
2023-05-06T12:24:47.561Z,101746.97
2023-05-06T12:27:14.287Z,101744.94
2023-05-06T12:29:40.774Z,101745.53
2023-05-06T12:32:11.676Z,101745.06
2023-05-06T12:34:40.013Z,101741.28
2023-05-06T12:37:09.858Z,101740.22
2023-05-06T12:39:40.409Z,101733.59
2023-05-06T12:42:06.980Z,101735.06
2023-05-06T12:44:40.031Z,101739.47
2023-05-06T12:47:08.936Z,101738.16
2023-05-06T12:49:53.679Z,101727.28
2023-05-06T12:52:25.181Z,101720.06
2023-05-06T12:54:55.032Z,101721.91
2023-05-06T12:57:22.161Z,101727.78
2023-05-06T12:59:49.160Z,101729.16
2023-05-06T13:02:16.115Z,101724.72
2023-05-06T13:04:42.807Z,101725.00
2023-05-06T13:07:09.259Z,101724.09
2023-05-06T13:09:35.769Z,101726.34
2023-05-06T13:12:04.449Z,101726.34
2023-05-06T13:14:30.929Z,101728.59
2023-05-06T13:17:00.788Z,101734.22
2023-05-06T13:19:33.055Z,101736.59
2023-05-06T13:22:00.621Z,101731.84
2023-05-06T13:24:27.383Z,101727.00
2023-05-06T13:26:53.860Z,101732.84
2023-05-06T13:29:20.438Z,101733.50
2023-05-06T13:31:46.938Z,101731.09
2023-05-06T13:34:13.885Z,101722.97
2023-05-06T13:36:40.338Z,101728.22
2023-05-06T13:39:06.865Z,101719.47
2023-05-06T13:41:33.238Z,101718.56
2023-05-06T13:43:59.847Z,101714.06
2023-05-06T13:46:29.245Z,101714.38
2023-05-06T13:48:55.706Z,101715.69
2023-05-06T13:51:22.160Z,101709.22
2023-05-06T13:53:48.540Z,101704.88
2023-05-06T13:56:14.955Z,101705.25
2023-05-06T13:58:43.683Z,101708.13
2023-05-06T14:01:10.279Z,101700.81
2023-05-06T14:03:37.062Z,101694.00
2023-05-06T14:06:03.735Z,101694.44
2023-05-06T14:08:30.244Z,101699.69
2023-05-06T14:10:56.599Z,101690.00
2023-05-06T14:13:23.319Z,101685.72
2023-05-06T14:15:49.851Z,101686.13
2023-05-06T14:18:16.358Z,101686.72
2023-05-06T14:20:44.116Z,101683.22
2023-05-06T14:23:10.580Z,101673.59
2023-05-06T14:25:37.096Z,101677.44
2023-05-06T14:28:03.575Z,101676.25
2023-05-06T14:30:31.251Z,101677.06
2023-05-06T14:32:58.686Z,101670.31
2023-05-06T14:35:25.337Z,101674.84
2023-05-06T14:37:51.985Z,101672.94
2023-05-06T14:40:18.418Z,101665.88
2023-05-06T14:42:45.831Z,101665.53
2023-05-06T14:45:13.454Z,101666.72
2023-05-06T14:47:40.717Z,101661.75
2023-05-06T14:50:11.944Z,101663.66
2023-05-06T14:52:40.025Z,101664.50
2023-05-06T14:55:08.817Z,101667.09
2023-05-06T14:57:35.746Z,101655.06
2023-05-06T15:00:04.909Z,101664.53
2023-05-06T15:02:31.377Z,101658.75
2023-05-06T15:04:58.185Z,101658.94
2023-05-06T15:07:24.562Z,101667.09
2023-05-06T15:09:53.369Z,101661.16
2023-05-06T15:12:21.153Z,101655.47
2023-05-06T15:14:47.680Z,101660.88
2023-05-06T15:17:14.074Z,101655.91
2023-05-06T15:19:40.714Z,101665.84
2023-05-06T15:22:07.339Z,101661.84
2023-05-06T15:24:33.757Z,101664.72
2023-05-06T15:27:00.672Z,101665.53
2023-05-06T15:29:27.324Z,101657.28
2023-05-06T15:31:54.256Z,101653.34
2023-05-06T15:34:21.169Z,101652.03
2023-05-06T15:36:53.539Z,101652.16
2023-05-06T15:39:20.044Z,101655.41
2023-05-06T15:41:47.577Z,101656.22
2023-05-06T15:44:16.388Z,101655.41
2023-05-06T15:46:43.014Z,101650.69
2023-05-06T15:49:39.634Z,101652.00
2023-05-06T15:51:59.123Z,101655.47
2023-05-06T15:54:27.261Z,101651.97
2023-05-06T15:56:53.708Z,101658.44
2023-05-06T15:59:20.152Z,101659.13
2023-05-06T16:04:16.380Z,101662.47
2023-05-06T16:06:42.982Z,101656.56
2023-05-06T16:09:10.334Z,101661.38
2023-05-06T16:11:36.884Z,101662.09
2023-05-06T16:14:03.805Z,101660.47
2023-05-06T16:16:30.513Z,101657.28
2023-05-06T16:18:57.031Z,101659.63
2023-05-06T16:21:23.493Z,101664.63
2023-05-06T16:23:49.855Z,101663.19
2023-05-06T16:26:16.854Z,101661.56
2023-05-06T16:28:43.305Z,101662.38
2023-05-06T16:31:09.793Z,101654.59
2023-05-06T16:33:36.677Z,101657.66
2023-05-06T16:36:03.974Z,101655.09
2023-05-06T16:38:30.648Z,101657.19
2023-05-06T16:40:57.037Z,101650.78
2023-05-06T16:43:23.757Z,101658.16
2023-05-06T16:45:50.352Z,101652.16
2023-05-06T16:48:17.240Z,101654.50
2023-05-06T16:50:43.766Z,101657.22
2023-05-06T16:53:10.627Z,101655.84
2023-05-06T16:55:37.142Z,101655.28
2023-05-06T16:58:04.088Z,101659.69
2023-05-06T17:00:31.747Z,101660.84
2023-05-06T17:02:58.504Z,101659.66
2023-05-06T17:05:25.155Z,101659.44
2023-05-06T17:07:51.880Z,101657.75
2023-05-06T17:10:19.019Z,101664.41
2023-05-06T17:12:47.014Z,101656.16
2023-05-06T17:15:13.459Z,101654.69
2023-05-06T17:17:40.030Z,101656.19
2023-05-06T17:20:07.376Z,101655.06
2023-05-06T17:22:33.881Z,101655.41
2023-05-06T17:25:00.444Z,101660.47
2023-05-06T17:27:27.115Z,101662.69
2023-05-06T17:29:53.533Z,101658.09
2023-05-06T17:32:20.012Z,101652.69
2023-05-06T17:34:46.573Z,101655.69
2023-05-06T17:37:12.975Z,101655.44
2023-05-06T17:39:39.811Z,101653.13
2023-05-06T17:42:06.361Z,101653.13
2023-05-06T17:44:35.169Z,101653.81
2023-05-06T17:47:01.583Z,101654.69
2023-05-06T17:49:28.047Z,101655.63
2023-05-06T17:51:56.101Z,101661.25
2023-05-06T17:54:23.002Z,101667.97
2023-05-06T17:56:52.679Z,101673.53
2023-05-06T17:59:19.843Z,101671.41
2023-05-06T18:01:46.547Z,101672.53
2023-05-06T18:04:13.592Z,101678.47
2023-05-06T18:06:41.664Z,101681.09
2023-05-06T18:09:08.520Z,101679.22
2023-05-06T18:11:35.181Z,101695.09
2023-05-06T18:14:01.634Z,101696.59
2023-05-06T18:16:28.175Z,101693.47
2023-05-06T18:18:54.630Z,101698.81
2023-05-06T18:21:21.187Z,101705.09
2023-05-06T18:23:48.520Z,101710.38
2023-05-06T18:26:27.999Z,101710.03
2023-05-06T18:29:06.771Z,101703.38
2023-05-06T18:31:33.516Z,101706.81
2023-05-06T18:33:59.936Z,101712.50
2023-05-06T18:36:26.921Z,101709.69
2023-05-06T18:38:53.443Z,101705.41
2023-05-06T18:41:19.841Z,101709.66
2023-05-06T18:43:46.253Z,101718.94
2023-05-06T18:46:12.678Z,101713.28
2023-05-06T18:48:39.146Z,101724.56
2023-05-06T18:51:23.960Z,101721.75
2023-05-06T18:53:50.428Z,101724.19
2023-05-06T18:56:16.936Z,101731.03
2023-05-06T18:58:43.582Z,101727.00
2023-05-06T19:01:10.829Z,101726.38
2023-05-06T19:03:37.989Z,101730.41
2023-05-06T19:06:07.575Z,101741.69
2023-05-06T19:08:34.003Z,101758.47
2023-05-06T19:11:01.204Z,101752.78
2023-05-06T19:13:28.201Z,101747.94
2023-05-06T19:15:55.030Z,101755.00
2023-05-06T19:18:21.524Z,101755.78
2023-05-06T19:20:47.965Z,101751.97
2023-05-06T19:23:14.384Z,101760.03
2023-05-06T19:25:40.794Z,101753.16
2023-05-06T19:28:07.630Z,101753.34
2023-05-06T19:30:35.351Z,101760.03
2023-05-06T19:33:02.515Z,101762.03
2023-05-06T19:35:29.101Z,101761.00
2023-05-06T19:37:56.123Z,101758.38
2023-05-06T19:40:22.695Z,101756.34
2023-05-06T19:42:49.114Z,101753.50
2023-05-06T19:45:16.709Z,101761.16
2023-05-06T19:47:45.314Z,101761.72
2023-05-06T19:50:12.046Z,101767.72
2023-05-06T19:52:38.666Z,101761.88
2023-05-06T19:55:05.570Z,101758.84
2023-05-06T19:57:33.627Z,101757.31
2023-05-06T20:00:00.290Z,101758.88
2023-05-06T20:02:26.861Z,101754.84
2023-05-06T20:04:53.314Z,101754.88
2023-05-06T20:07:21.102Z,101754.47
2023-05-06T20:09:55.009Z,101756.88
2023-05-06T20:12:26.396Z,101752.66
2023-05-06T20:14:53.684Z,101756.59
2023-05-06T20:17:20.617Z,101759.97
2023-05-06T20:19:47.909Z,101757.63
2023-05-06T20:22:14.821Z,101748.75
2023-05-06T20:24:42.476Z,101759.22
2023-05-06T20:27:09.505Z,101755.81
2023-05-06T20:29:36.235Z,101750.16
2023-05-06T20:32:02.925Z,101751.72
2023-05-06T20:34:29.708Z,101751.72
2023-05-06T20:36:56.773Z,101747.50
2023-05-06T20:39:23.896Z,101753.53
2023-05-06T20:41:50.501Z,101755.34
2023-05-06T20:44:17.167Z,101757.84
2023-05-06T20:46:44.141Z,101759.03
2023-05-06T20:49:10.760Z,101759.63
2023-05-06T20:51:37.227Z,101764.44
2023-05-06T20:54:03.960Z,101758.38
2023-05-06T20:56:30.550Z,101758.69
2023-05-06T20:58:56.996Z,101758.88
2023-05-06T21:01:24.142Z,101759.72
2023-05-06T21:03:50.945Z,101759.34
2023-05-06T21:06:18.581Z,101761.75
2023-05-06T21:08:46.375Z,101762.38
2023-05-06T21:11:13.255Z,101754.91
2023-05-06T21:13:40.276Z,101757.53
2023-05-06T21:16:06.644Z,101748.41
2023-05-06T21:18:33.155Z,101751.78
2023-05-06T21:20:59.775Z,101755.25
2023-05-06T21:23:26.609Z,101751.41
2023-05-06T21:25:53.034Z,101742.16
2023-05-06T21:28:19.461Z,101740.72
2023-05-06T21:30:46.050Z,101739.47
2023-05-06T21:33:12.608Z,101732.19
2023-05-06T21:35:39.108Z,101728.78
2023-05-06T21:38:05.518Z,101734.31
2023-05-06T21:40:32.230Z,101736.88
2023-05-06T21:42:58.712Z,101725.97
2023-05-06T21:45:25.359Z,101739.22
2023-05-06T21:47:51.838Z,101737.50
2023-05-06T21:50:18.255Z,101742.31
2023-05-06T21:52:44.672Z,101745.94
2023-05-06T21:55:11.515Z,101741.09
2023-05-06T21:57:38.750Z,101740.91
2023-05-06T22:00:11.974Z,101739.88
2023-05-06T22:02:41.834Z,101752.34
2023-05-06T22:05:09.031Z,101753.69
2023-05-06T22:07:35.969Z,101757.50
2023-05-06T22:10:03.096Z,101745.78
2023-05-06T22:12:30.087Z,101754.19
2023-05-06T22:14:56.552Z,101744.72
2023-05-06T22:17:23.202Z,101747.53
2023-05-06T22:19:50.480Z,101751.31
2023-05-06T22:22:17.199Z,101752.75
2023-05-06T22:24:43.884Z,101752.75
2023-05-06T22:27:10.687Z,101754.75
2023-05-06T22:29:37.130Z,101760.97
2023-05-06T22:32:03.929Z,101757.97
2023-05-06T22:34:30.420Z,101755.38
2023-05-06T22:36:59.167Z,101755.38
2023-05-06T22:39:27.186Z,101758.97
2023-05-06T22:41:53.717Z,101756.91
2023-05-06T22:44:21.004Z,101759.69
2023-05-06T22:46:47.425Z,101765.09
2023-05-06T22:49:14.444Z,101752.03
2023-05-06T22:51:41.238Z,101763.69
2023-05-06T22:54:07.620Z,101768.28
2023-05-06T22:56:34.037Z,101764.06
2023-05-06T22:59:00.481Z,101764.84
2023-05-06T23:01:32.267Z,101764.84
2023-05-06T23:03:59.629Z,101774.50
2023-05-06T23:06:27.680Z,101764.22
2023-05-06T23:08:54.199Z,101756.13
2023-05-06T23:11:20.779Z,101762.53
2023-05-06T23:13:47.325Z,101763.06
2023-05-06T23:16:14.617Z,101763.06
2023-05-06T23:18:41.374Z,101760.19
2023-05-06T23:21:08.011Z,101764.81
2023-05-06T23:23:34.629Z,101765.97
2023-05-06T23:26:01.026Z,101766.13
2023-05-06T23:28:27.842Z,101765.78
2023-05-06T23:30:54.320Z,101768.38
2023-05-06T23:33:21.182Z,101778.03
2023-05-06T23:35:47.610Z,101766.13
2023-05-06T23:38:15.768Z,101775.00
2023-05-06T23:40:42.388Z,101765.06
2023-05-06T23:43:11.220Z,101755.97
2023-05-06T23:45:37.974Z,101763.19
2023-05-06T23:48:04.988Z,101761.56
2023-05-06T23:50:32.826Z,101765.16
2023-05-06T23:52:59.356Z,101773.81
2023-05-06T23:55:26.401Z,101767.25
2023-05-06T23:57:53.040Z,101769.94
